sensor_id;sensor_type;location;lat;lon;timestamp;P1;durP1;ratioP1;P2;durP2;ratioP2
32501;SDS011;18952;52.516;13.460;2023-03-20T00:01:19;7.65;;;4.40;;
32501;SDS011;18952;52.516;13.460;2023-03-20T00:03:52;8.13;;;4.47;;
32501;SDS011;18952;52.516;13.460;2023-03-20T00:06:20;5.50;;;3.80;;
32501;SDS011;18952;52.516;13.460;2023-03-20T00:08:52;6.18;;;4.13;;
32501;SDS011;18952;52.516;13.460;2023-03-20T00:13:52;7.20;;;4.53;;
32501;SDS011;18952;52.516;13.460;2023-03-20T00:16:22;5.78;;;3.85;;
32501;SDS011;18952;52.516;13.460;2023-03-20T00:18:50;8.70;;;4.78;;
32501;SDS011;18952;52.516;13.460;2023-03-20T00:21:17;7.10;;;4.13;;
32501;SDS011;18952;52.516;13.460;2023-03-20T00:23:44;8.90;;;4.60;;
32501;SDS011;18952;52.516;13.460;2023-03-20T00:26:12;7.40;;;4.18;;
32501;SDS011;18952;52.516;13.460;2023-03-20T00:28:41;6.35;;;4.57;;
32501;SDS011;18952;52.516;13.460;2023-03-20T00:34:04;6.82;;;4.28;;
32501;SDS011;18952;52.516;13.460;2023-03-20T00:36:35;12.10;;;5.10;;
32501;SDS011;18952;52.516;13.460;2023-03-20T00:39:01;8.35;;;4.90;;
32501;SDS011;18952;52.516;13.460;2023-03-20T00:44:02;8.38;;;4.65;;
32501;SDS011;18952;52.516;13.460;2023-03-20T00:46:31;7.20;;;4.90;;
32501;SDS011;18952;52.516;13.460;2023-03-20T00:49:03;9.77;;;5.40;;
32501;SDS011;18952;52.516;13.460;2023-03-20T00:51:30;7.43;;;4.85;;
32501;SDS011;18952;52.516;13.460;2023-03-20T00:53:57;7.25;;;5.20;;
32501;SDS011;18952;52.516;13.460;2023-03-20T00:56:34;11.27;;;5.95;;
32501;SDS011;18952;52.516;13.460;2023-03-20T00:59:03;11.32;;;5.45;;
32501;SDS011;18952;52.516;13.460;2023-03-20T01:01:30;11.57;;;5.70;;
32501;SDS011;18952;52.516;13.460;2023-03-20T01:03:58;12.75;;;6.20;;
32501;SDS011;18952;52.516;13.460;2023-03-20T01:06:25;11.60;;;6.47;;
32501;SDS011;18952;52.516;13.460;2023-03-20T01:08:51;10.23;;;5.75;;
32501;SDS011;18952;52.516;13.460;2023-03-20T01:11:20;9.70;;;5.50;;
32501;SDS011;18952;52.516;13.460;2023-03-20T01:13:48;10.77;;;6.28;;
32501;SDS011;18952;52.516;13.460;2023-03-20T01:16:18;8.70;;;5.30;;
32501;SDS011;18952;52.516;13.460;2023-03-20T01:18:47;9.88;;;5.78;;
32501;SDS011;18952;52.516;13.460;2023-03-20T01:21:14;9.15;;;6.22;;
32501;SDS011;18952;52.516;13.460;2023-03-20T01:23:41;9.27;;;5.60;;
32501;SDS011;18952;52.516;13.460;2023-03-20T01:29:00;9.50;;;5.70;;
32501;SDS011;18952;52.516;13.460;2023-03-20T01:31:26;9.07;;;6.03;;
32501;SDS011;18952;52.516;13.460;2023-03-20T01:33:53;9.63;;;6.25;;
32501;SDS011;18952;52.516;13.460;2023-03-20T01:36:21;11.07;;;6.20;;
32501;SDS011;18952;52.516;13.460;2023-03-20T01:38:50;9.13;;;5.95;;
32501;SDS011;18952;52.516;13.460;2023-03-20T01:41:22;10.95;;;6.47;;
32501;SDS011;18952;52.516;13.460;2023-03-20T01:43:51;8.68;;;6.57;;
32501;SDS011;18952;52.516;13.460;2023-03-20T01:53:55;12.38;;;7.10;;
32501;SDS011;18952;52.516;13.460;2023-03-20T01:56:25;11.05;;;7.72;;
32501;SDS011;18952;52.516;13.460;2023-03-20T01:59:01;11.65;;;7.10;;
32501;SDS011;18952;52.516;13.460;2023-03-20T02:01:33;10.38;;;7.28;;
32501;SDS011;18952;52.516;13.460;2023-03-20T02:04:01;9.60;;;7.30;;
32501;SDS011;18952;52.516;13.460;2023-03-20T02:06:28;10.15;;;7.00;;
32501;SDS011;18952;52.516;13.460;2023-03-20T02:08:55;11.18;;;7.72;;
32501;SDS011;18952;52.516;13.460;2023-03-20T02:11:22;13.63;;;8.88;;
32501;SDS011;18952;52.516;13.460;2023-03-20T02:13:50;12.40;;;8.25;;
32501;SDS011;18952;52.516;13.460;2023-03-20T02:16:20;13.82;;;8.63;;
32501;SDS011;18952;52.516;13.460;2023-03-20T02:18:47;14.38;;;9.10;;
32501;SDS011;18952;52.516;13.460;2023-03-20T02:36:13;12.93;;;7.80;;
32501;SDS011;18952;52.516;13.460;2023-03-20T02:39:12;13.60;;;8.23;;
32501;SDS011;18952;52.516;13.460;2023-03-20T02:41:55;14.07;;;7.90;;
32501;SDS011;18952;52.516;13.460;2023-03-20T02:52:41;14.10;;;8.90;;
32501;SDS011;18952;52.516;13.460;2023-03-20T02:55:26;14.73;;;8.38;;
32501;SDS011;18952;52.516;13.460;2023-03-20T03:00:33;11.43;;;7.57;;
32501;SDS011;18952;52.516;13.460;2023-03-20T03:03:19;13.20;;;7.60;;
32501;SDS011;18952;52.516;13.460;2023-03-20T03:05:59;9.90;;;8.32;;
32501;SDS011;18952;52.516;13.460;2023-03-20T03:08:33;13.48;;;9.23;;
32501;SDS011;18952;52.516;13.460;2023-03-20T03:11:08;12.73;;;8.10;;
32501;SDS011;18952;52.516;13.460;2023-03-20T03:13:36;13.00;;;9.55;;
32501;SDS011;18952;52.516;13.460;2023-03-20T03:16:09;10.23;;;8.52;;
32501;SDS011;18952;52.516;13.460;2023-03-20T03:18:42;14.80;;;8.15;;
32501;SDS011;18952;52.516;13.460;2023-03-20T03:21:11;11.75;;;8.52;;
32501;SDS011;18952;52.516;13.460;2023-03-20T03:23:43;12.93;;;8.40;;
32501;SDS011;18952;52.516;13.460;2023-03-20T03:26:25;10.85;;;8.55;;
32501;SDS011;18952;52.516;13.460;2023-03-20T03:28:59;12.68;;;8.43;;
32501;SDS011;18952;52.516;13.460;2023-03-20T03:31:29;10.75;;;8.32;;
32501;SDS011;18952;52.516;13.460;2023-03-20T03:33:57;14.88;;;8.82;;
32501;SDS011;18952;52.516;13.460;2023-03-20T03:39:09;12.15;;;8.40;;
32501;SDS011;18952;52.516;13.460;2023-03-20T03:47:31;11.00;;;8.77;;
32501;SDS011;18952;52.516;13.460;2023-03-20T03:50:10;13.27;;;8.93;;
32501;SDS011;18952;52.516;13.460;2023-03-20T03:52:42;14.70;;;9.80;;
32501;SDS011;18952;52.516;13.460;2023-03-20T03:55:13;14.82;;;8.80;;
32501;SDS011;18952;52.516;13.460;2023-03-20T03:57:48;12.57;;;9.40;;
32501;SDS011;18952;52.516;13.460;2023-03-20T04:00:21;16.23;;;9.65;;
32501;SDS011;18952;52.516;13.460;2023-03-20T04:02:52;12.27;;;10.07;;
32501;SDS011;18952;52.516;13.460;2023-03-20T04:05:21;12.43;;;9.85;;
32501;SDS011;18952;52.516;13.460;2023-03-20T04:07:54;10.88;;;9.77;;
32501;SDS011;18952;52.516;13.460;2023-03-20T04:10:23;14.10;;;10.60;;
32501;SDS011;18952;52.516;13.460;2023-03-20T04:12:50;14.27;;;10.40;;
32501;SDS011;18952;52.516;13.460;2023-03-20T04:15:17;13.07;;;10.57;;
32501;SDS011;18952;52.516;13.460;2023-03-20T04:17:43;14.15;;;10.95;;
32501;SDS011;18952;52.516;13.460;2023-03-20T04:20:10;15.60;;;12.35;;
32501;SDS011;18952;52.516;13.460;2023-03-20T04:22:38;14.65;;;11.45;;
32501;SDS011;18952;52.516;13.460;2023-03-20T04:25:05;16.75;;;12.40;;
32501;SDS011;18952;52.516;13.460;2023-03-20T04:27:33;16.67;;;12.40;;
32501;SDS011;18952;52.516;13.460;2023-03-20T04:30:00;18.45;;;12.68;;
32501;SDS011;18952;52.516;13.460;2023-03-20T04:32:27;19.08;;;13.65;;
32501;SDS011;18952;52.516;13.460;2023-03-20T04:34:53;16.77;;;12.85;;
32501;SDS011;18952;52.516;13.460;2023-03-20T04:37:20;17.85;;;13.15;;
32501;SDS011;18952;52.516;13.460;2023-03-20T04:39:47;19.80;;;15.07;;
32501;SDS011;18952;52.516;13.460;2023-03-20T04:42:13;17.73;;;15.48;;
32501;SDS011;18952;52.516;13.460;2023-03-20T04:44:40;17.17;;;15.38;;
32501;SDS011;18952;52.516;13.460;2023-03-20T04:47:07;19.30;;;15.52;;
32501;SDS011;18952;52.516;13.460;2023-03-20T04:49:33;20.95;;;15.88;;
32501;SDS011;18952;52.516;13.460;2023-03-20T04:52:00;19.27;;;16.75;;
32501;SDS011;18952;52.516;13.460;2023-03-20T04:54:27;21.50;;;17.05;;
32501;SDS011;18952;52.516;13.460;2023-03-20T04:56:53;18.67;;;15.90;;
32501;SDS011;18952;52.516;13.460;2023-03-20T04:59:20;20.10;;;17.92;;
32501;SDS011;18952;52.516;13.460;2023-03-20T05:01:47;20.45;;;16.80;;
32501;SDS011;18952;52.516;13.460;2023-03-20T05:04:13;20.70;;;16.23;;
32501;SDS011;18952;52.516;13.460;2023-03-20T05:06:40;20.88;;;16.65;;
32501;SDS011;18952;52.516;13.460;2023-03-20T05:09:07;18.65;;;16.15;;
32501;SDS011;18952;52.516;13.460;2023-03-20T05:11:34;23.55;;;17.02;;
32501;SDS011;18952;52.516;13.460;2023-03-20T05:14:01;20.30;;;17.13;;
32501;SDS011;18952;52.516;13.460;2023-03-20T05:16:28;18.83;;;16.55;;
32501;SDS011;18952;52.516;13.460;2023-03-20T05:18:55;20.10;;;17.00;;
32501;SDS011;18952;52.516;13.460;2023-03-20T05:21:21;21.10;;;17.02;;
32501;SDS011;18952;52.516;13.460;2023-03-20T05:23:48;19.55;;;17.45;;
32501;SDS011;18952;52.516;13.460;2023-03-20T05:26:15;19.42;;;16.75;;
32501;SDS011;18952;52.516;13.460;2023-03-20T05:28:42;23.60;;;16.58;;
32501;SDS011;18952;52.516;13.460;2023-03-20T05:31:08;18.48;;;16.52;;
32501;SDS011;18952;52.516;13.460;2023-03-20T05:33:35;22.42;;;16.65;;
32501;SDS011;18952;52.516;13.460;2023-03-20T05:36:03;24.17;;;17.70;;
32501;SDS011;18952;52.516;13.460;2023-03-20T05:38:31;26.48;;;18.48;;
32501;SDS011;18952;52.516;13.460;2023-03-20T05:40:58;25.90;;;17.88;;
32501;SDS011;18952;52.516;13.460;2023-03-20T05:43:25;23.92;;;17.35;;
32501;SDS011;18952;52.516;13.460;2023-03-20T05:45:52;23.90;;;18.70;;
32501;SDS011;18952;52.516;13.460;2023-03-20T05:48:19;20.95;;;18.05;;
32501;SDS011;18952;52.516;13.460;2023-03-20T05:50:47;21.58;;;17.95;;
32501;SDS011;18952;52.516;13.460;2023-03-20T05:53:14;22.88;;;17.10;;
32501;SDS011;18952;52.516;13.460;2023-03-20T05:55:41;21.38;;;17.75;;
32501;SDS011;18952;52.516;13.460;2023-03-20T05:58:07;25.83;;;17.77;;
32501;SDS011;18952;52.516;13.460;2023-03-20T06:00:34;21.98;;;17.95;;
32501;SDS011;18952;52.516;13.460;2023-03-20T06:03:01;21.42;;;18.73;;
32501;SDS011;18952;52.516;13.460;2023-03-20T06:05:28;23.88;;;18.85;;
32501;SDS011;18952;52.516;13.460;2023-03-20T06:07:54;24.23;;;20.08;;
32501;SDS011;18952;52.516;13.460;2023-03-20T06:10:21;27.13;;;20.98;;
32501;SDS011;18952;52.516;13.460;2023-03-20T06:12:48;24.27;;;21.80;;
32501;SDS011;18952;52.516;13.460;2023-03-20T06:15:15;25.25;;;22.55;;
32501;SDS011;18952;52.516;13.460;2023-03-20T06:17:41;29.45;;;25.33;;
32501;SDS011;18952;52.516;13.460;2023-03-20T06:20:08;32.05;;;25.42;;
32501;SDS011;18952;52.516;13.460;2023-03-20T06:22:35;31.13;;;26.92;;
32501;SDS011;18952;52.516;13.460;2023-03-20T06:25:02;36.13;;;31.58;;
32501;SDS011;18952;52.516;13.460;2023-03-20T06:27:29;42.90;;;34.90;;
32501;SDS011;18952;52.516;13.460;2023-03-20T06:29:56;44.35;;;36.38;;
32501;SDS011;18952;52.516;13.460;2023-03-20T06:32:23;38.30;;;31.98;;
32501;SDS011;18952;52.516;13.460;2023-03-20T06:34:50;35.38;;;30.90;;
32501;SDS011;18952;52.516;13.460;2023-03-20T06:37:17;33.65;;;30.02;;
32501;SDS011;18952;52.516;13.460;2023-03-20T06:39:44;43.58;;;36.28;;
32501;SDS011;18952;52.516;13.460;2023-03-20T06:42:11;40.17;;;32.83;;
32501;SDS011;18952;52.516;13.460;2023-03-20T06:44:41;38.65;;;32.33;;
32501;SDS011;18952;52.516;13.460;2023-03-20T06:47:08;39.28;;;31.30;;
32501;SDS011;18952;52.516;13.460;2023-03-20T06:49:35;37.88;;;32.28;;
32501;SDS011;18952;52.516;13.460;2023-03-20T06:52:01;36.17;;;31.65;;
32501;SDS011;18952;52.516;13.460;2023-03-20T06:54:28;35.08;;;30.80;;
32501;SDS011;18952;52.516;13.460;2023-03-20T06:56:55;45.45;;;33.92;;
32501;SDS011;18952;52.516;13.460;2023-03-20T06:59:22;42.58;;;36.80;;
32501;SDS011;18952;52.516;13.460;2023-03-20T07:01:48;49.72;;;39.63;;
32501;SDS011;18952;52.516;13.460;2023-03-20T07:04:15;49.80;;;39.00;;
32501;SDS011;18952;52.516;13.460;2023-03-20T07:06:42;59.25;;;43.28;;
32501;SDS011;18952;52.516;13.460;2023-03-20T07:09:09;52.60;;;38.33;;
32501;SDS011;18952;52.516;13.460;2023-03-20T07:11:36;54.33;;;43.47;;
32501;SDS011;18952;52.516;13.460;2023-03-20T07:14:02;60.45;;;46.00;;
32501;SDS011;18952;52.516;13.460;2023-03-20T07:16:29;56.97;;;44.58;;
32501;SDS011;18952;52.516;13.460;2023-03-20T07:18:56;62.10;;;45.97;;
32501;SDS011;18952;52.516;13.460;2023-03-20T07:21:23;64.50;;;47.33;;
32501;SDS011;18952;52.516;13.460;2023-03-20T07:23:50;67.60;;;49.88;;
32501;SDS011;18952;52.516;13.460;2023-03-20T07:26:17;67.55;;;48.55;;
32501;SDS011;18952;52.516;13.460;2023-03-20T07:28:43;66.65;;;48.25;;
32501;SDS011;18952;52.516;13.460;2023-03-20T07:31:17;67.93;;;49.60;;
32501;SDS011;18952;52.516;13.460;2023-03-20T07:33:49;65.15;;;48.97;;
32501;SDS011;18952;52.516;13.460;2023-03-20T07:36:16;64.53;;;46.25;;
32501;SDS011;18952;52.516;13.460;2023-03-20T07:38:43;62.33;;;45.05;;
32501;SDS011;18952;52.516;13.460;2023-03-20T07:41:09;60.28;;;44.58;;
32501;SDS011;18952;52.516;13.460;2023-03-20T07:43:36;60.22;;;45.00;;
32501;SDS011;18952;52.516;13.460;2023-03-20T07:46:04;61.80;;;45.17;;
32501;SDS011;18952;52.516;13.460;2023-03-20T07:48:32;59.72;;;44.88;;
32501;SDS011;18952;52.516;13.460;2023-03-20T07:51:00;69.82;;;49.55;;
32501;SDS011;18952;52.516;13.460;2023-03-20T07:53:27;68.13;;;47.50;;
32501;SDS011;18952;52.516;13.460;2023-03-20T07:55:54;64.97;;;46.45;;
32501;SDS011;18952;52.516;13.460;2023-03-20T07:58:22;63.95;;;45.17;;
32501;SDS011;18952;52.516;13.460;2023-03-20T08:00:48;67.93;;;44.08;;
32501;SDS011;18952;52.516;13.460;2023-03-20T08:03:16;59.95;;;41.72;;
32501;SDS011;18952;52.516;13.460;2023-03-20T08:05:43;53.97;;;40.22;;
32501;SDS011;18952;52.516;13.460;2023-03-20T08:08:13;56.53;;;40.20;;
32501;SDS011;18952;52.516;13.460;2023-03-20T08:10:42;60.17;;;40.53;;
32501;SDS011;18952;52.516;13.460;2023-03-20T08:13:09;59.88;;;38.95;;
32501;SDS011;18952;52.516;13.460;2023-03-20T08:15:36;55.42;;;38.35;;
32501;SDS011;18952;52.516;13.460;2023-03-20T08:18:04;58.75;;;39.05;;
32501;SDS011;18952;52.516;13.460;2023-03-20T08:20:31;52.33;;;38.70;;
32501;SDS011;18952;52.516;13.460;2023-03-20T08:22:58;55.92;;;38.42;;
32501;SDS011;18952;52.516;13.460;2023-03-20T08:25:25;56.83;;;37.67;;
32501;SDS011;18952;52.516;13.460;2023-03-20T08:27:52;55.00;;;38.80;;
32501;SDS011;18952;52.516;13.460;2023-03-20T08:30:19;55.58;;;39.45;;
32501;SDS011;18952;52.516;13.460;2023-03-20T08:32:46;61.95;;;41.45;;
32501;SDS011;18952;52.516;13.460;2023-03-20T08:35:13;60.70;;;40.83;;
32501;SDS011;18952;52.516;13.460;2023-03-20T08:37:58;62.88;;;40.92;;
32501;SDS011;18952;52.516;13.460;2023-03-20T08:40:25;59.10;;;39.08;;
32501;SDS011;18952;52.516;13.460;2023-03-20T08:42:52;61.35;;;37.20;;
32501;SDS011;18952;52.516;13.460;2023-03-20T08:45:19;56.25;;;37.78;;
32501;SDS011;18952;52.516;13.460;2023-03-20T08:47:46;50.85;;;36.35;;
32501;SDS011;18952;52.516;13.460;2023-03-20T08:50:14;51.38;;;34.97;;
32501;SDS011;18952;52.516;13.460;2023-03-20T08:52:41;55.38;;;37.75;;
32501;SDS011;18952;52.516;13.460;2023-03-20T08:55:09;53.00;;;36.53;;
32501;SDS011;18952;52.516;13.460;2023-03-20T08:57:37;54.42;;;35.25;;
32501;SDS011;18952;52.516;13.460;2023-03-20T09:00:05;53.78;;;36.13;;
32501;SDS011;18952;52.516;13.460;2023-03-20T09:02:36;50.42;;;35.40;;
32501;SDS011;18952;52.516;13.460;2023-03-20T09:05:03;51.75;;;33.63;;
32501;SDS011;18952;52.516;13.460;2023-03-20T09:07:31;44.72;;;33.03;;
32501;SDS011;18952;52.516;13.460;2023-03-20T09:09:58;45.63;;;32.58;;
32501;SDS011;18952;52.516;13.460;2023-03-20T09:12:25;45.05;;;31.35;;
32501;SDS011;18952;52.516;13.460;2023-03-20T09:14:53;42.08;;;30.65;;
32501;SDS011;18952;52.516;13.460;2023-03-20T09:17:19;40.38;;;29.40;;
32501;SDS011;18952;52.516;13.460;2023-03-20T09:19:46;45.60;;;30.05;;
32501;SDS011;18952;52.516;13.460;2023-03-20T09:22:13;40.63;;;29.42;;
32501;SDS011;18952;52.516;13.460;2023-03-20T09:24:42;38.13;;;29.58;;
32501;SDS011;18952;52.516;13.460;2023-03-20T09:27:10;39.17;;;29.05;;
32501;SDS011;18952;52.516;13.460;2023-03-20T09:29:37;38.25;;;29.48;;
32501;SDS011;18952;52.516;13.460;2023-03-20T09:32:12;38.97;;;28.17;;
32501;SDS011;18952;52.516;13.460;2023-03-20T09:34:42;38.67;;;27.40;;
32501;SDS011;18952;52.516;13.460;2023-03-20T09:37:09;38.13;;;26.75;;
32501;SDS011;18952;52.516;13.460;2023-03-20T09:39:36;39.60;;;27.55;;
32501;SDS011;18952;52.516;13.460;2023-03-20T09:50:26;30.90;;;21.98;;
32501;SDS011;18952;52.516;13.460;2023-03-20T09:55:37;29.88;;;22.73;;
32501;SDS011;18952;52.516;13.460;2023-03-20T09:58:11;27.67;;;22.33;;
32501;SDS011;18952;52.516;13.460;2023-03-20T10:00:43;32.25;;;23.10;;
32501;SDS011;18952;52.516;13.460;2023-03-20T10:03:18;31.40;;;22.73;;
32501;SDS011;18952;52.516;13.460;2023-03-20T10:08:24;29.65;;;20.88;;
32501;SDS011;18952;52.516;13.460;2023-03-20T10:14:32;29.60;;;20.38;;
32501;SDS011;18952;52.516;13.460;2023-03-20T10:19:34;25.10;;;17.67;;
32501;SDS011;18952;52.516;13.460;2023-03-20T10:22:16;26.20;;;18.80;;
32501;SDS011;18952;52.516;13.460;2023-03-20T10:25:02;26.02;;;17.27;;
32501;SDS011;18952;52.516;13.460;2023-03-20T10:32:48;22.33;;;16.15;;
32501;SDS011;18952;52.516;13.460;2023-03-20T10:38:25;21.70;;;15.63;;
32501;SDS011;18952;52.516;13.460;2023-03-20T10:43:35;24.95;;;16.33;;
32501;SDS011;18952;52.516;13.460;2023-03-20T10:46:15;23.50;;;15.55;;
32501;SDS011;18952;52.516;13.460;2023-03-20T10:48:58;24.38;;;15.40;;
32501;SDS011;18952;52.516;13.460;2023-03-20T10:54:20;22.40;;;15.65;;
32501;SDS011;18952;52.516;13.460;2023-03-20T10:57:24;22.40;;;15.77;;
32501;SDS011;18952;52.516;13.460;2023-03-20T10:59:53;20.35;;;14.98;;
32501;SDS011;18952;52.516;13.460;2023-03-20T11:02:31;23.33;;;15.30;;
32501;SDS011;18952;52.516;13.460;2023-03-20T11:04:59;22.40;;;14.82;;
32501;SDS011;18952;52.516;13.460;2023-03-20T11:07:33;28.08;;;14.70;;
32501;SDS011;18952;52.516;13.460;2023-03-20T11:12:32;19.15;;;13.50;;
32501;SDS011;18952;52.516;13.460;2023-03-20T11:15:03;18.48;;;14.00;;
32501;SDS011;18952;52.516;13.460;2023-03-20T11:17:40;17.23;;;13.15;;
32501;SDS011;18952;52.516;13.460;2023-03-20T11:20:17;17.85;;;12.95;;
32501;SDS011;18952;52.516;13.460;2023-03-20T11:22:45;18.27;;;12.93;;
32501;SDS011;18952;52.516;13.460;2023-03-20T11:25:24;19.20;;;13.02;;
32501;SDS011;18952;52.516;13.460;2023-03-20T11:27:56;16.98;;;12.32;;
32501;SDS011;18952;52.516;13.460;2023-03-20T11:30:43;23.10;;;12.60;;
32501;SDS011;18952;52.516;13.460;2023-03-20T11:33:29;20.42;;;14.07;;
32501;SDS011;18952;52.516;13.460;2023-03-20T11:35:57;18.20;;;12.77;;
32501;SDS011;18952;52.516;13.460;2023-03-20T11:38:25;19.15;;;12.65;;
32501;SDS011;18952;52.516;13.460;2023-03-20T11:40:54;22.38;;;13.77;;
32501;SDS011;18952;52.516;13.460;2023-03-20T11:43:25;17.45;;;13.40;;
32501;SDS011;18952;52.516;13.460;2023-03-20T11:45:54;18.08;;;12.82;;
32501;SDS011;18952;52.516;13.460;2023-03-20T11:48:35;17.75;;;12.60;;
32501;SDS011;18952;52.516;13.460;2023-03-20T11:51:16;20.05;;;13.02;;
32501;SDS011;18952;52.516;13.460;2023-03-20T11:56:14;19.35;;;12.73;;
32501;SDS011;18952;52.516;13.460;2023-03-20T11:58:53;16.02;;;12.57;;
32501;SDS011;18952;52.516;13.460;2023-03-20T12:01:25;16.40;;;12.85;;
32501;SDS011;18952;52.516;13.460;2023-03-20T12:06:24;22.73;;;13.10;;
32501;SDS011;18952;52.516;13.460;2023-03-20T12:08:55;17.20;;;13.50;;
32501;SDS011;18952;52.516;13.460;2023-03-20T12:18:29;18.23;;;13.07;;
32501;SDS011;18952;52.516;13.460;2023-03-20T12:21:09;23.00;;;12.90;;
32501;SDS011;18952;52.516;13.460;2023-03-20T12:26:38;19.65;;;13.20;;
32501;SDS011;18952;52.516;13.460;2023-03-20T12:29:19;19.33;;;13.45;;
32501;SDS011;18952;52.516;13.460;2023-03-20T12:35:33;17.80;;;13.05;;
32501;SDS011;18952;52.516;13.460;2023-03-20T12:38:07;21.65;;;13.90;;
32501;SDS011;18952;52.516;13.460;2023-03-20T12:40:47;19.48;;;13.50;;
32501;SDS011;18952;52.516;13.460;2023-03-20T12:43:29;23.42;;;14.45;;
32501;SDS011;18952;52.516;13.460;2023-03-20T12:48:49;20.80;;;14.18;;
32501;SDS011;18952;52.516;13.460;2023-03-20T12:51:52;19.42;;;14.00;;
32501;SDS011;18952;52.516;13.460;2023-03-20T13:00:54;22.98;;;15.73;;
32501;SDS011;18952;52.516;13.460;2023-03-20T13:17:51;23.10;;;16.17;;
32501;SDS011;18952;52.516;13.460;2023-03-20T13:31:41;21.98;;;16.95;;
32501;SDS011;18952;52.516;13.460;2023-03-20T13:40:04;25.87;;;18.03;;
32501;SDS011;18952;52.516;13.460;2023-03-20T13:42:41;25.73;;;18.73;;
32501;SDS011;18952;52.516;13.460;2023-03-20T13:47:55;28.52;;;18.08;;
32501;SDS011;18952;52.516;13.460;2023-03-20T14:05:08;27.85;;;19.98;;
32501;SDS011;18952;52.516;13.460;2023-03-20T14:07:48;27.42;;;20.55;;
32501;SDS011;18952;52.516;13.460;2023-03-20T14:12:52;30.02;;;20.88;;
32501;SDS011;18952;52.516;13.460;2023-03-20T14:15:22;32.90;;;21.08;;
32501;SDS011;18952;52.516;13.460;2023-03-20T14:18:01;29.35;;;21.02;;
32501;SDS011;18952;52.516;13.460;2023-03-20T14:20:37;29.38;;;20.50;;
32501;SDS011;18952;52.516;13.460;2023-03-20T14:23:15;30.75;;;21.35;;
32501;SDS011;18952;52.516;13.460;2023-03-20T14:25:46;28.10;;;20.67;;
32501;SDS011;18952;52.516;13.460;2023-03-20T14:30:46;29.20;;;20.67;;
32501;SDS011;18952;52.516;13.460;2023-03-20T14:50:56;32.05;;;21.35;;
32501;SDS011;18952;52.516;13.460;2023-03-20T14:53:33;33.10;;;21.60;;
32501;SDS011;18952;52.516;13.460;2023-03-20T14:56:05;30.13;;;21.80;;
32501;SDS011;18952;52.516;13.460;2023-03-20T14:59:16;32.53;;;22.73;;
32501;SDS011;18952;52.516;13.460;2023-03-20T15:07:24;35.00;;;22.83;;
32501;SDS011;18952;52.516;13.460;2023-03-20T15:09:58;32.80;;;22.77;;
32501;SDS011;18952;52.516;13.460;2023-03-20T15:13:02;34.20;;;22.70;;
32501;SDS011;18952;52.516;13.460;2023-03-20T15:16:28;37.42;;;22.73;;
32501;SDS011;18952;52.516;13.460;2023-03-20T15:19:19;35.22;;;23.20;;
32501;SDS011;18952;52.516;13.460;2023-03-20T15:21:54;33.08;;;23.08;;
32501;SDS011;18952;52.516;13.460;2023-03-20T15:25:00;39.05;;;25.25;;
32501;SDS011;18952;52.516;13.460;2023-03-20T15:30:45;34.25;;;23.60;;
32501;SDS011;18952;52.516;13.460;2023-03-20T15:34:02;34.05;;;22.98;;
32501;SDS011;18952;52.516;13.460;2023-03-20T15:36:57;35.22;;;24.15;;
32501;SDS011;18952;52.516;13.460;2023-03-20T15:42:14;33.00;;;23.25;;
32501;SDS011;18952;52.516;13.460;2023-03-20T15:44:47;39.33;;;24.83;;
32501;SDS011;18952;52.516;13.460;2023-03-20T15:47:16;35.72;;;24.58;;
32501;SDS011;18952;52.516;13.460;2023-03-20T15:49:58;36.58;;;24.60;;
32501;SDS011;18952;52.516;13.460;2023-03-20T15:52:27;33.97;;;24.17;;
32501;SDS011;18952;52.516;13.460;2023-03-20T15:57:41;34.95;;;24.25;;
32501;SDS011;18952;52.516;13.460;2023-03-20T16:00:25;32.75;;;24.33;;
32501;SDS011;18952;52.516;13.460;2023-03-20T16:03:04;34.63;;;23.42;;
32501;SDS011;18952;52.516;13.460;2023-03-20T16:05:33;34.35;;;24.60;;
32501;SDS011;18952;52.516;13.460;2023-03-20T16:08:13;31.88;;;22.75;;
32501;SDS011;18952;52.516;13.460;2023-03-20T16:10:47;31.58;;;23.10;;
32501;SDS011;18952;52.516;13.460;2023-03-20T16:13:14;32.85;;;23.30;;
32501;SDS011;18952;52.516;13.460;2023-03-20T16:15:41;27.70;;;22.30;;
32501;SDS011;18952;52.516;13.460;2023-03-20T16:18:10;32.10;;;22.10;;
32501;SDS011;18952;52.516;13.460;2023-03-20T16:20:45;30.98;;;22.23;;
32501;SDS011;18952;52.516;13.460;2023-03-20T16:23:51;28.83;;;22.73;;
32501;SDS011;18952;52.516;13.460;2023-03-20T16:26:12;27.08;;;21.85;;
32501;SDS011;18952;52.516;13.460;2023-03-20T16:28:47;30.40;;;22.25;;
32501;SDS011;18952;52.516;13.460;2023-03-20T16:31:21;27.45;;;21.13;;
32501;SDS011;18952;52.516;13.460;2023-03-20T16:34:38;27.42;;;20.90;;
32501;SDS011;18952;52.516;13.460;2023-03-20T16:36:54;28.65;;;20.67;;
32501;SDS011;18952;52.516;13.460;2023-03-20T16:39:24;30.57;;;21.40;;
32501;SDS011;18952;52.516;13.460;2023-03-20T16:42:00;29.08;;;21.38;;
32501;SDS011;18952;52.516;13.460;2023-03-20T16:44:34;30.08;;;21.25;;
32501;SDS011;18952;52.516;13.460;2023-03-20T16:47:24;30.35;;;22.35;;
32501;SDS011;18952;52.516;13.460;2023-03-20T16:50:21;29.55;;;21.00;;
32501;SDS011;18952;52.516;13.460;2023-03-20T16:55:29;29.70;;;22.10;;
32501;SDS011;18952;52.516;13.460;2023-03-20T16:57:59;29.27;;;21.55;;
32501;SDS011;18952;52.516;13.460;2023-03-20T17:00:45;30.60;;;23.00;;
32501;SDS011;18952;52.516;13.460;2023-03-20T17:03:18;31.48;;;22.65;;
32501;SDS011;18952;52.516;13.460;2023-03-20T17:06:03;29.90;;;22.35;;
32501;SDS011;18952;52.516;13.460;2023-03-20T17:08:59;26.95;;;21.98;;
32501;SDS011;18952;52.516;13.460;2023-03-20T17:11:34;28.88;;;22.73;;
32501;SDS011;18952;52.516;13.460;2023-03-20T17:14:03;33.35;;;23.25;;
32501;SDS011;18952;52.516;13.460;2023-03-20T17:16:30;33.38;;;22.70;;
32501;SDS011;18952;52.516;13.460;2023-03-20T17:19:05;28.92;;;22.55;;
32501;SDS011;18952;52.516;13.460;2023-03-20T17:21:36;29.63;;;23.40;;
32501;SDS011;18952;52.516;13.460;2023-03-20T17:24:04;30.23;;;21.73;;
32501;SDS011;18952;52.516;13.460;2023-03-20T17:26:32;30.10;;;23.23;;
32501;SDS011;18952;52.516;13.460;2023-03-20T17:28:59;29.60;;;22.67;;
32501;SDS011;18952;52.516;13.460;2023-03-20T17:31:25;31.95;;;23.77;;
32501;SDS011;18952;52.516;13.460;2023-03-20T17:33:52;29.75;;;23.17;;
32501;SDS011;18952;52.516;13.460;2023-03-20T17:36:20;31.90;;;23.60;;
32501;SDS011;18952;52.516;13.460;2023-03-20T17:38:50;27.85;;;21.52;;
32501;SDS011;18952;52.516;13.460;2023-03-20T17:41:20;28.52;;;22.83;;
32501;SDS011;18952;52.516;13.460;2023-03-20T17:43:47;28.98;;;22.52;;
32501;SDS011;18952;52.516;13.460;2023-03-20T17:46:18;30.02;;;22.20;;
32501;SDS011;18952;52.516;13.460;2023-03-20T17:48:47;29.40;;;23.35;;
32501;SDS011;18952;52.516;13.460;2023-03-20T17:51:14;31.13;;;24.75;;
32501;SDS011;18952;52.516;13.460;2023-03-20T17:53:42;34.78;;;24.25;;
32501;SDS011;18952;52.516;13.460;2023-03-20T17:56:09;28.42;;;23.40;;
32501;SDS011;18952;52.516;13.460;2023-03-20T17:58:38;29.88;;;22.63;;
32501;SDS011;18952;52.516;13.460;2023-03-20T18:01:06;28.85;;;23.17;;
32501;SDS011;18952;52.516;13.460;2023-03-20T18:03:34;30.27;;;23.38;;